sensor_id;sensor_type;location;lat;lon;timestamp;pressure;altitude;pressure_sealevel;temperature;humidity
77235;BME280;66253;50.526;14.974;2024-01-10T00:00:40;100738.32;;;-9.10;74.00
77235;BME280;66253;50.526;14.974;2024-01-10T00:03:08;100739.34;;;-9.13;74.22
77235;BME280;66253;50.526;14.974;2024-01-10T00:05:37;100739.67;;;-9.16;74.06
77235;BME280;66253;50.526;14.974;2024-01-10T00:08:06;100735.92;;;-9.19;74.39
77235;BME280;66253;50.526;14.974;2024-01-10T00:10:34;100732.95;;;-9.23;74.27
77235;BME280;66253;50.526;14.974;2024-01-10T00:13:02;100734.52;;;-9.20;74.15
77235;BME280;66253;50.526;14.974;2024-01-10T00:15:30;100732.90;;;-9.24;74.21
77235;BME280;66253;50.526;14.974;2024-01-10T00:17:59;100727.91;;;-9.28;73.99
77235;BME280;66253;50.526;14.974;2024-01-10T00:20:27;100721.79;;;-9.31;74.12
77235;BME280;66253;50.526;14.974;2024-01-10T00:22:55;100725.66;;;-9.30;74.34
77235;BME280;66253;50.526;14.974;2024-01-10T00:25:23;100725.99;;;-9.30;73.87
77235;BME280;66253;50.526;14.974;2024-01-10T00:27:52;100722.45;;;-9.31;74.25
77235;BME280;66253;50.526;14.974;2024-01-10T00:30:20;100719.30;;;-9.35;74.27
77235;BME280;66253;50.526;14.974;2024-01-10T00:32:48;100717.36;;;-9.37;74.77
77235;BME280;66253;50.526;14.974;2024-01-10T00:35:16;100715.66;;;-9.38;74.71
77235;BME280;66253;50.526;14.974;2024-01-10T00:37:45;100714.33;;;-9.42;74.42
77235;BME280;66253;50.526;14.974;2024-01-10T00:40:13;100719.23;;;-9.43;74.51
77235;BME280;66253;50.526;14.974;2024-01-10T00:42:41;100722.04;;;-9.46;74.74
77235;BME280;66253;50.526;14.974;2024-01-10T00:45:10;100718.84;;;-9.47;74.71
77235;BME280;66253;50.526;14.974;2024-01-10T00:47:38;100717.21;;;-9.47;74.60
77235;BME280;66253;50.526;14.974;2024-01-10T00:50:07;100717.77;;;-9.46;74.68
77235;BME280;66253;50.526;14.974;2024-01-10T00:52:36;100714.66;;;-9.49;74.38
77235;BME280;66253;50.526;14.974;2024-01-10T00:55:05;100710.29;;;-9.50;74.80
77235;BME280;66253;50.526;14.974;2024-01-10T00:57:33;100709.91;;;-9.51;74.57
77235;BME280;66253;50.526;14.974;2024-01-10T01:00:01;100712.21;;;-9.51;74.73
77235;BME280;66253;50.526;14.974;2024-01-10T01:02:31;100712.67;;;-9.52;74.20
77235;BME280;66253;50.526;14.974;2024-01-10T01:05:00;100714.57;;;-9.54;74.34
77235;BME280;66253;50.526;14.974;2024-01-10T01:07:28;100714.16;;;-9.55;74.43
77235;BME280;66253;50.526;14.974;2024-01-10T01:09:56;100709.46;;;-9.57;74.64
77235;BME280;66253;50.526;14.974;2024-01-10T01:12:25;100706.92;;;-9.58;74.48
77235;BME280;66253;50.526;14.974;2024-01-10T01:14:53;100705.89;;;-9.59;74.50
77235;BME280;66253;50.526;14.974;2024-01-10T01:17:21;100707.21;;;-9.59;74.36
77235;BME280;66253;50.526;14.974;2024-01-10T01:19:49;100710.37;;;-9.58;74.77
77235;BME280;66253;50.526;14.974;2024-01-10T01:22:17;100716.24;;;-9.57;74.55
77235;BME280;66253;50.526;14.974;2024-01-10T01:24:46;100722.27;;;-9.55;74.61
77235;BME280;66253;50.526;14.974;2024-01-10T01:27:14;100717.79;;;-9.59;74.08
77235;BME280;66253;50.526;14.974;2024-01-10T01:29:42;100719.35;;;-9.57;74.09
77235;BME280;66253;50.526;14.974;2024-01-10T01:32:11;100719.91;;;-9.56;74.40
77235;BME280;66253;50.526;14.974;2024-01-10T01:34:39;100715.47;;;-9.56;74.18
77235;BME280;66253;50.526;14.974;2024-01-10T01:37:08;100716.46;;;-9.56;74.14
77235;BME280;66253;50.526;14.974;2024-01-10T01:39:36;100713.86;;;-9.55;74.66
77235;BME280;66253;50.526;14.974;2024-01-10T01:42:05;100711.09;;;-9.54;74.54
77235;BME280;66253;50.526;14.974;2024-01-10T01:44:33;100707.07;;;-9.55;74.14
77235;BME280;66253;50.526;14.974;2024-01-10T01:47:02;100706.81;;;-9.57;74.14
77235;BME280;66253;50.526;14.974;2024-01-10T01:49:31;100702.56;;;-9.59;74.03
77235;BME280;66253;50.526;14.974;2024-01-10T01:52:00;100703.36;;;-9.60;74.01
77235;BME280;66253;50.526;14.974;2024-01-10T01:54:29;100702.86;;;-9.63;74.15
77235;BME280;66253;50.526;14.974;2024-01-10T01:56:59;100698.55;;;-9.63;74.72
77235;BME280;66253;50.526;14.974;2024-01-10T01:59:28;100698.27;;;-9.62;74.77
77235;BME280;66253;50.526;14.974;2024-01-10T02:02:00;100699.60;;;-9.62;74.51
77235;BME280;66253;50.526;14.974;2024-01-10T02:04:31;100694.00;;;-9.65;74.03
77235;BME280;66253;50.526;14.974;2024-01-10T02:07:00;100694.52;;;-9.68;74.06
77235;BME280;66253;50.526;14.974;2024-01-10T02:09:28;100694.89;;;-9.67;74.20
77235;BME280;66253;50.526;14.974;2024-01-10T02:11:57;100694.20;;;-9.68;74.29
77235;BME280;66253;50.526;14.974;2024-01-10T02:14:25;100692.73;;;-9.67;74.55
77235;BME280;66253;50.526;14.974;2024-01-10T02:16:54;100691.88;;;-9.68;74.44
77235;BME280;66253;50.526;14.974;2024-01-10T02:19:23;100686.59;;;-9.68;74.65
77235;BME280;66253;50.526;14.974;2024-01-10T02:21:51;100687.21;;;-9.69;74.54
77235;BME280;66253;50.526;14.974;2024-01-10T02:24:20;100686.11;;;-9.71;73.98
77235;BME280;66253;50.526;14.974;2024-01-10T02:26:49;100685.71;;;-9.73;74.26
77235;BME280;66253;50.526;14.974;2024-01-10T02:29:20;100686.76;;;-9.75;73.75
77235;BME280;66253;50.526;14.974;2024-01-10T02:31:48;100690.59;;;-9.74;74.08
77235;BME280;66253;50.526;14.974;2024-01-10T02:34:18;100686.02;;;-9.73;74.56
77235;BME280;66253;50.526;14.974;2024-01-10T02:36:46;100687.63;;;-9.74;74.20
77235;BME280;66253;50.526;14.974;2024-01-10T02:39:14;100677.76;;;-9.77;74.32
77235;BME280;66253;50.526;14.974;2024-01-10T02:41:42;100680.22;;;-9.77;74.05
77235;BME280;66253;50.526;14.974;2024-01-10T02:44:11;100677.32;;;-9.81;74.12
77235;BME280;66253;50.526;14.974;2024-01-10T02:46:39;100675.69;;;-9.88;73.63
77235;BME280;66253;50.526;14.974;2024-01-10T02:49:07;100680.58;;;-9.96;73.81
77235;BME280;66253;50.526;14.974;2024-01-10T02:51:36;100679.86;;;-10.04;73.98
77235;BME280;66253;50.526;14.974;2024-01-10T02:54:04;100680.98;;;-10.08;74.18
77235;BME280;66253;50.526;14.974;2024-01-10T02:56:32;100679.66;;;-10.11;74.57
77235;BME280;66253;50.526;14.974;2024-01-10T02:59:00;100682.59;;;-10.09;74.48
77235;BME280;66253;50.526;14.974;2024-01-10T03:01:30;100681.95;;;-10.08;74.30
77235;BME280;66253;50.526;14.974;2024-01-10T03:03:58;100682.43;;;-10.05;74.50
77235;BME280;66253;50.526;14.974;2024-01-10T03:06:26;100686.08;;;-10.02;74.85
77235;BME280;66253;50.526;14.974;2024-01-10T03:08:55;100685.73;;;-9.99;74.98
77235;BME280;66253;50.526;14.974;2024-01-10T03:11:24;100687.60;;;-9.98;74.70
77235;BME280;66253;50.526;14.974;2024-01-10T03:14:04;100678.68;;;-9.98;74.75
77235;BME280;66253;50.526;14.974;2024-01-10T03:16:35;100674.83;;;-9.96;74.74
77235;BME280;66253;50.526;14.974;2024-01-10T03:19:03;100671.87;;;-9.92;75.01
77235;BME280;66253;50.526;14.974;2024-01-10T03:21:31;100672.05;;;-9.88;75.37
77235;BME280;66253;50.526;14.974;2024-01-10T03:24:01;100673.08;;;-9.87;74.80
77235;BME280;66253;50.526;14.974;2024-01-10T03:26:30;100671.90;;;-9.87;74.54
77235;BME280;66253;50.526;14.974;2024-01-10T03:28:59;100668.92;;;-9.88;74.36
77235;BME280;66253;50.526;14.974;2024-01-10T03:31:28;100669.88;;;-9.88;74.88
77235;BME280;66253;50.526;14.974;2024-01-10T03:33:56;100667.60;;;-9.88;74.75
77235;BME280;66253;50.526;14.974;2024-01-10T03:36:25;100663.47;;;-9.88;74.64
77235;BME280;66253;50.526;14.974;2024-01-10T03:38:53;100660.92;;;-9.89;74.81
77235;BME280;66253;50.526;14.974;2024-01-10T03:41:21;100659.11;;;-9.89;74.53
77235;BME280;66253;50.526;14.974;2024-01-10T03:43:50;100654.38;;;-9.91;74.46
77235;BME280;66253;50.526;14.974;2024-01-10T03:46:18;100657.21;;;-9.90;74.58
77235;BME280;66253;50.526;14.974;2024-01-10T03:48:46;100663.65;;;-9.91;74.71
77235;BME280;66253;50.526;14.974;2024-01-10T03:51:14;100658.50;;;-9.91;74.64
77235;BME280;66253;50.526;14.974;2024-01-10T03:53:43;100656.69;;;-9.91;74.84
77235;BME280;66253;50.526;14.974;2024-01-10T03:56:11;100655.83;;;-9.92;74.67
77235;BME280;66253;50.526;14.974;2024-01-10T03:58:39;100653.54;;;-9.91;75.32
77235;BME280;66253;50.526;14.974;2024-01-10T04:01:08;100652.61;;;-9.90;75.35
77235;BME280;66253;50.526;14.974;2024-01-10T04:03:37;100655.05;;;-9.88;75.47
77235;BME280;66253;50.526;14.974;2024-01-10T04:06:06;100654.95;;;-9.86;75.52
77235;BME280;66253;50.526;14.974;2024-01-10T04:08:34;100649.19;;;-9.86;75.20
77235;BME280;66253;50.526;14.974;2024-01-10T04:11:02;100652.88;;;-9.85;75.51
77235;BME280;66253;50.526;14.974;2024-01-10T04:13:31;100654.94;;;-9.83;75.30
77235;BME280;66253;50.526;14.974;2024-01-10T04:15:59;100648.45;;;-9.84;75.03
77235;BME280;66253;50.526;14.974;2024-01-10T04:18:27;100650.71;;;-9.82;74.89
77235;BME280;66253;50.526;14.974;2024-01-10T04:20:55;100651.56;;;-9.81;75.21
77235;BME280;66253;50.526;14.974;2024-01-10T04:23:24;100649.05;;;-9.82;74.94
77235;BME280;66253;50.526;14.974;2024-01-10T04:25:52;100646.51;;;-9.83;74.44
77235;BME280;66253;50.526;14.974;2024-01-10T04:28:20;100648.02;;;-9.86;74.61
77235;BME280;66253;50.526;14.974;2024-01-10T04:30:48;100651.02;;;-9.89;74.38
77235;BME280;66253;50.526;14.974;2024-01-10T04:33:16;100649.84;;;-9.93;74.23
77235;BME280;66253;50.526;14.974;2024-01-10T04:35:45;100651.91;;;-9.97;74.51
77235;BME280;66253;50.526;14.974;2024-01-10T04:38:13;100650.50;;;-10.03;73.85
77235;BME280;66253;50.526;14.974;2024-01-10T04:40:42;100647.98;;;-10.07;74.12
77235;BME280;66253;50.526;14.974;2024-01-10T04:43:10;100655.46;;;-10.12;74.31
77235;BME280;66253;50.526;14.974;2024-01-10T04:45:38;100653.89;;;-10.14;74.73
77235;BME280;66253;50.526;14.974;2024-01-10T04:48:08;100657.88;;;-10.13;75.15
77235;BME280;66253;50.526;14.974;2024-01-10T04:50:37;100654.61;;;-10.13;74.85
77235;BME280;66253;50.526;14.974;2024-01-10T04:53:05;100651.62;;;-10.13;74.56
77235;BME280;66253;50.526;14.974;2024-01-10T04:55:33;100646.14;;;-10.14;74.82
77235;BME280;66253;50.526;14.974;2024-01-10T04:58:01;100651.27;;;-10.14;74.84
77235;BME280;66253;50.526;14.974;2024-01-10T05:00:30;100648.80;;;-10.14;74.91
77235;BME280;66253;50.526;14.974;2024-01-10T05:02:58;100646.25;;;-10.12;75.33
77235;BME280;66253;50.526;14.974;2024-01-10T05:05:26;100648.58;;;-10.08;75.28
77235;BME280;66253;50.526;14.974;2024-01-10T05:07:55;100649.52;;;-10.06;75.21
77235;BME280;66253;50.526;14.974;2024-01-10T05:10:23;100648.06;;;-10.05;75.13
77235;BME280;66253;50.526;14.974;2024-01-10T05:12:51;100647.49;;;-10.03;75.11
77235;BME280;66253;50.526;14.974;2024-01-10T05:15:19;100645.91;;;-10.02;74.87
77235;BME280;66253;50.526;14.974;2024-01-10T05:17:48;100643.13;;;-10.01;74.97
77235;BME280;66253;50.526;14.974;2024-01-10T05:20:16;100641.34;;;-10.01;74.91
77235;BME280;66253;50.526;14.974;2024-01-10T05:22:45;100644.31;;;-10.01;74.53
77235;BME280;66253;50.526;14.974;2024-01-10T05:25:13;100646.61;;;-10.01;75.05
77235;BME280;66253;50.526;14.974;2024-01-10T05:27:41;100644.52;;;-10.00;74.92
77235;BME280;66253;50.526;14.974;2024-01-10T05:30:11;100644.11;;;-9.98;75.04
77235;BME280;66253;50.526;14.974;2024-01-10T05:32:40;100643.05;;;-9.97;74.96
77235;BME280;66253;50.526;14.974;2024-01-10T05:35:09;100640.95;;;-9.96;74.79
77235;BME280;66253;50.526;14.974;2024-01-10T05:37:37;100642.11;;;-9.96;74.62
77235;BME280;66253;50.526;14.974;2024-01-10T05:40:07;100636.77;;;-9.96;74.55
77235;BME280;66253;50.526;14.974;2024-01-10T05:42:36;100639.55;;;-9.97;74.96
77235;BME280;66253;50.526;14.974;2024-01-10T05:45:05;100635.60;;;-9.97;74.68
77235;BME280;66253;50.526;14.974;2024-01-10T05:47:34;100637.63;;;-9.96;74.85
77235;BME280;66253;50.526;14.974;2024-01-10T05:50:02;100637.84;;;-9.95;74.80
77235;BME280;66253;50.526;14.974;2024-01-10T05:52:32;100639.88;;;-9.94;74.96
77235;BME280;66253;50.526;14.974;2024-01-10T05:55:01;100640.78;;;-9.92;75.08
77235;BME280;66253;50.526;14.974;2024-01-10T05:57:29;100638.32;;;-9.91;75.18
77235;BME280;66253;50.526;14.974;2024-01-10T05:59:57;100637.91;;;-9.90;74.95
77235;BME280;66253;50.526;14.974;2024-01-10T06:02:28;100634.36;;;-9.88;74.91
77235;BME280;66253;50.526;14.974;2024-01-10T06:04:56;100634.80;;;-9.86;74.80
77235;BME280;66253;50.526;14.974;2024-01-10T06:07:24;100633.36;;;-9.88;74.91
77235;BME280;66253;50.526;14.974;2024-01-10T06:09:53;100633.04;;;-9.88;74.79
77235;BME280;66253;50.526;14.974;2024-01-10T06:12:21;100634.33;;;-9.89;75.00
77235;BME280;66253;50.526;14.974;2024-01-10T06:14:50;100634.50;;;-9.88;75.16
77235;BME280;66253;50.526;14.974;2024-01-10T06:17:18;100635.14;;;-9.89;75.28
77235;BME280;66253;50.526;14.974;2024-01-10T06:19:46;100635.26;;;-9.87;75.36
77235;BME280;66253;50.526;14.974;2024-01-10T06:22:15;100631.73;;;-9.84;75.47
77235;BME280;66253;50.526;14.974;2024-01-10T06:24:43;100635.45;;;-9.83;75.40
77235;BME280;66253;50.526;14.974;2024-01-10T06:27:12;100639.52;;;-9.81;75.71
77235;BME280;66253;50.526;14.974;2024-01-10T06:29:40;100641.63;;;-9.78;76.07
77235;BME280;66253;50.526;14.974;2024-01-10T06:32:08;100633.94;;;-9.77;76.06
77235;BME280;66253;50.526;14.974;2024-01-10T06:34:37;100634.47;;;-9.76;75.69
77235;BME280;66253;50.526;14.974;2024-01-10T06:37:05;100637.32;;;-9.75;75.98
77235;BME280;66253;50.526;14.974;2024-01-10T06:39:34;100634.50;;;-9.72;76.46
77235;BME280;66253;50.526;14.974;2024-01-10T06:42:03;100638.30;;;-9.68;76.06
77235;BME280;66253;50.526;14.974;2024-01-10T06:44:31;100631.98;;;-9.65;76.56
77235;BME280;66253;50.526;14.974;2024-01-10T06:46:59;100634.11;;;-9.63;76.01
77235;BME280;66253;50.526;14.974;2024-01-10T06:49:28;100632.79;;;-9.59;76.46
77235;BME280;66253;50.526;14.974;2024-01-10T06:51:56;100634.11;;;-9.55;76.57
77235;BME280;66253;50.526;14.974;2024-01-10T06:54:24;100626.30;;;-9.53;76.24
77235;BME280;66253;50.526;14.974;2024-01-10T06:56:53;100629.60;;;-9.50;76.40
77235;BME280;66253;50.526;14.974;2024-01-10T06:59:22;100628.35;;;-9.48;76.13
77235;BME280;66253;50.526;14.974;2024-01-10T07:01:54;100624.31;;;-9.46;76.60
77235;BME280;66253;50.526;14.974;2024-01-10T07:04:22;100627.33;;;-9.41;76.57
77235;BME280;66253;50.526;14.974;2024-01-10T07:06:50;100623.98;;;-9.38;76.79
77235;BME280;66253;50.526;14.974;2024-01-10T07:09:19;100626.45;;;-9.35;76.51
77235;BME280;66253;50.526;14.974;2024-01-10T07:11:50;100629.62;;;-9.31;76.54
77235;BME280;66253;50.526;14.974;2024-01-10T07:14:18;100633.41;;;-9.28;76.21
77235;BME280;66253;50.526;14.974;2024-01-10T07:16:47;100639.30;;;-9.26;76.17
77235;BME280;66253;50.526;14.974;2024-01-10T07:19:18;100642.66;;;-9.25;75.94
77235;BME280;66253;50.526;14.974;2024-01-10T07:21:47;100640.89;;;-9.24;76.66
77235;BME280;66253;50.526;14.974;2024-01-10T07:24:15;100640.10;;;-9.24;75.58
77235;BME280;66253;50.526;14.974;2024-01-10T07:26:43;100641.02;;;-9.24;75.46
77235;BME280;66253;50.526;14.974;2024-01-10T07:29:12;100639.92;;;-9.24;76.09
77235;BME280;66253;50.526;14.974;2024-01-10T07:31:40;100643.13;;;-9.22;75.81
77235;BME280;66253;50.526;14.974;2024-01-10T07:34:09;100647.66;;;-9.21;75.95
77235;BME280;66253;50.526;14.974;2024-01-10T07:36:43;100647.27;;;-9.18;75.98
77235;BME280;66253;50.526;14.974;2024-01-10T07:39:12;100647.21;;;-9.16;75.43
77235;BME280;66253;50.526;14.974;2024-01-10T07:41:40;100644.02;;;-9.13;76.45
77235;BME280;66253;50.526;14.974;2024-01-10T07:44:09;100648.95;;;-9.11;76.63
77235;BME280;66253;50.526;14.974;2024-01-10T07:46:37;100653.19;;;-9.08;76.41
77235;BME280;66253;50.526;14.974;2024-01-10T07:49:06;100647.95;;;-9.07;75.94
77235;BME280;66253;50.526;14.974;2024-01-10T07:51:37;100643.05;;;-9.06;76.48
77235;BME280;66253;50.526;14.974;2024-01-10T07:54:06;100642.11;;;-9.01;76.64
77235;BME280;66253;50.526;14.974;2024-01-10T07:56:34;100643.02;;;-8.95;77.23
77235;BME280;66253;50.526;14.974;2024-01-10T07:59:02;100642.05;;;-8.91;76.33
77235;BME280;66253;50.526;14.974;2024-01-10T08:01:31;100641.24;;;-8.87;77.12
77235;BME280;66253;50.526;14.974;2024-01-10T08:03:59;100640.66;;;-8.82;77.14
77235;BME280;66253;50.526;14.974;2024-01-10T08:06:28;100635.91;;;-8.77;76.85
77235;BME280;66253;50.526;14.974;2024-01-10T08:08:56;100640.41;;;-8.72;76.83
77235;BME280;66253;50.526;14.974;2024-01-10T08:11:25;100639.14;;;-8.67;76.70
77235;BME280;66253;50.526;14.974;2024-01-10T08:13:53;100641.99;;;-8.62;76.44
77235;BME280;66253;50.526;14.974;2024-01-10T08:16:21;100640.25;;;-8.57;76.53
77235;BME280;66253;50.526;14.974;2024-01-10T08:18:49;100641.91;;;-8.49;77.05
77235;BME280;66253;50.526;14.974;2024-01-10T08:21:18;100638.84;;;-8.43;76.60
77235;BME280;66253;50.526;14.974;2024-01-10T08:23:46;100636.95;;;-8.37;76.35
77235;BME280;66253;50.526;14.974;2024-01-10T08:26:15;100639.89;;;-8.30;76.82
77235;BME280;66253;50.526;14.974;2024-01-10T08:28:43;100639.08;;;-8.22;76.85
77235;BME280;66253;50.526;14.974;2024-01-10T08:31:11;100634.38;;;-8.16;77.11
77235;BME280;66253;50.526;14.974;2024-01-10T08:33:40;100638.18;;;-8.08;77.36
77235;BME280;66253;50.526;14.974;2024-01-10T08:36:09;100634.52;;;-8.00;77.44
77235;BME280;66253;50.526;14.974;2024-01-10T08:38:37;100638.95;;;-7.90;77.49
77235;BME280;66253;50.526;14.974;2024-01-10T08:41:06;100640.53;;;-7.79;76.79
77235;BME280;66253;50.526;14.974;2024-01-10T08:43:35;100638.83;;;-7.67;77.09
77235;BME280;66253;50.526;14.974;2024-01-10T08:46:03;100640.37;;;-7.54;77.39
77235;BME280;66253;50.526;14.974;2024-01-10T08:48:32;100641.94;;;-7.40;76.98
77235;BME280;66253;50.526;14.974;2024-01-10T08:51:01;100641.50;;;-7.25;76.99
77235;BME280;66253;50.526;14.974;2024-01-10T08:53:30;100645.41;;;-7.10;77.10
77235;BME280;66253;50.526;14.974;2024-01-10T08:55:58;100643.67;;;-6.94;77.29
77235;BME280;66253;50.526;14.974;2024-01-10T08:58:27;100644.11;;;-6.78;77.36
77235;BME280;66253;50.526;14.974;2024-01-10T09:00:55;100643.36;;;-6.62;77.41
77235;BME280;66253;50.526;14.974;2024-01-10T09:03:24;100644.88;;;-6.47;77.11
77235;BME280;66253;50.526;14.974;2024-01-10T09:05:54;100646.55;;;-6.33;77.06
77235;BME280;66253;50.526;14.974;2024-01-10T09:08:22;100644.27;;;-6.18;77.05
77235;BME280;66253;50.526;14.974;2024-01-10T09:10:51;100646.13;;;-6.02;77.00
77235;BME280;66253;50.526;14.974;2024-01-10T09:13:19;100646.10;;;-5.87;76.71
77235;BME280;66253;50.526;14.974;2024-01-10T09:15:48;100646.30;;;-5.70;76.86
77235;BME280;66253;50.526;14.974;2024-01-10T09:18:16;100648.69;;;-5.53;76.88
77235;BME280;66253;50.526;14.974;2024-01-10T09:20:48;100647.46;;;-5.39;76.44
77235;BME280;66253;50.526;14.974;2024-01-10T09:23:16;100652.65;;;-5.28;76.40
77235;BME280;66253;50.526;14.974;2024-01-10T09:25:44;100655.33;;;-5.17;75.47
77235;BME280;66253;50.526;14.974;2024-01-10T09:28:13;100651.57;;;-5.04;75.58
77235;BME280;66253;50.526;14.974;2024-01-10T09:30:41;100652.52;;;-4.88;75.62
77235;BME280;66253;50.526;14.974;2024-01-10T09:33:10;100650.32;;;-4.72;75.33
77235;BME280;66253;50.526;14.974;2024-01-10T09:35:38;100649.05;;;-4.58;75.44
77235;BME280;66253;50.526;14.974;2024-01-10T09:38:06;100647.81;;;-4.43;75.24
77235;BME280;66253;50.526;14.974;2024-01-10T09:40:34;100641.14;;;-4.30;74.65
77235;BME280;66253;50.526;14.974;2024-01-10T09:43:03;100641.83;;;-4.17;74.48
77235;BME280;66253;50.526;14.974;2024-01-10T09:45:32;100641.65;;;-4.05;74.15
77235;BME280;66253;50.526;14.974;2024-01-10T09:48:03;100642.14;;;-3.92;73.79
77235;BME280;66253;50.526;14.974;2024-01-10T09:50:32;100635.49;;;-3.78;73.81
77235;BME280;66253;50.526;14.974;2024-01-10T09:53:06;100632.00;;;-3.64;73.93
77235;BME280;66253;50.526;14.974;2024-01-10T09:55:36;100625.99;;;-3.50;73.86
77235;BME280;66253;50.526;14.974;2024-01-10T09:58:06;100624.32;;;-3.36;73.97
77235;BME280;66253;50.526;14.974;2024-01-10T10:00:34;100623.85;;;-3.19;74.20
77235;BME280;66253;50.526;14.974;2024-01-10T10:03:05;100618.35;;;-3.04;73.83
77235;BME280;66253;50.526;14.974;2024-01-10T10:05:36;100616.86;;;-2.87;73.57
77235;BME280;66253;50.526;14.974;2024-01-10T10:08:08;100613.30;;;-2.73;73.06
77235;BME280;66253;50.526;14.974;2024-01-10T10:10:36;100607.72;;;-2.60;72.89
77235;BME280;66253;50.526;14.974;2024-01-10T10:13:05;100613.86;;;-2.45;72.88
77235;BME280;66253;50.526;14.974;2024-01-10T10:15:33;100609.46;;;-2.30;72.14
77235;BME280;66253;50.526;14.974;2024-01-10T10:18:01;100605.39;;;-2.14;71.88
77235;BME280;66253;50.526;14.974;2024-01-10T10:20:32;100598.10;;;-2.00;71.33
77235;BME280;66253;50.526;14.974;2024-01-10T10:23:01;100592.61;;;-1.89;71.13
77235;BME280;66253;50.526;14.974;2024-01-10T10:25:30;100595.35;;;-1.74;70.43
77235;BME280;66253;50.526;14.974;2024-01-10T10:27:58;100594.58;;;-1.60;69.59
77235;BME280;66253;50.526;14.974;2024-01-10T10:30:28;100589.73;;;-1.48;69.44
77235;BME280;66253;50.526;14.974;2024-01-10T10:32:57;100590.75;;;-1.36;68.26
77235;BME280;66253;50.526;14.974;2024-01-10T10:35:26;100588.04;;;-1.27;67.80
77235;BME280;66253;50.526;14.974;2024-01-10T10:37:55;100584.02;;;-1.14;67.38
77235;BME280;66253;50.526;14.974;2024-01-10T10:40:23;100581.31;;;-1.03;67.34
77235;BME280;66253;50.526;14.974;2024-01-10T10:42:55;100577.95;;;-0.91;67.33
77235;BME280;66253;50.526;14.974;2024-01-10T10:45:24;100577.77;;;-0.77;66.77
77235;BME280;66253;50.526;14.974;2024-01-10T10:47:58;100579.10;;;-0.64;66.69
77235;BME280;66253;50.526;14.974;2024-01-10T10:50:32;100582.05;;;-0.55;66.95
77235;BME280;66253;50.526;14.974;2024-01-10T10:53:03;100581.30;;;-0.48;66.83
77235;BME280;66253;50.526;14.974;2024-01-10T10:55:32;100576.68;;;-0.40;66.77
77235;BME280;66253;50.526;14.974;2024-01-10T10:58:03;100579.15;;;-0.28;66.55
77235;BME280;66253;50.526;14.974;2024-01-10T11:00:32;100580.29;;;-0.15;66.20
77235;BME280;66253;50.526;14.974;2024-01-10T11:03:01;100576.67;;;-0.07;65.38
77235;BME280;66253;50.526;14.974;2024-01-10T11:05:32;100580.45;;;0.02;64.89
77235;BME280;66253;50.526;14.974;2024-01-10T11:08:03;100581.86;;;0.10;64.41
77235;BME280;66253;50.526;14.974;2024-01-10T11:10:34;100577.75;;;0.21;63.94
77235;BME280;66253;50.526;14.974;2024-01-10T11:13:27;100572.13;;;0.32;63.70
77235;BME280;66253;50.526;14.974;2024-01-10T11:19:04;100563.67;;;0.50;64.42
77235;BME280;66253;50.526;14.974;2024-01-10T11:21:44;100562.89;;;0.58;64.40
77235;BME280;66253;50.526;14.974;2024-01-10T11:24:18;100565.30;;;0.66;63.19
77235;BME280;66253;50.526;14.974;2024-01-10T11:26:47;100564.33;;;0.76;63.14
77235;BME280;66253;50.526;14.974;2024-01-10T11:29:17;100565.57;;;0.85;62.57
77235;BME280;66253;50.526;14.974;2024-01-10T11:31:51;100565.45;;;0.93;62.04
77235;BME280;66253;50.526;14.974;2024-01-10T11:34:23;100562.28;;;1.01;61.95
77235;BME280;66253;50.526;14.974;2024-01-10T11:37:11;100563.32;;;1.09;61.32
77235;BME280;66253;50.526;14.974;2024-01-10T11:39:42;100562.16;;;1.14;59.40
77235;BME280;66253;50.526;14.974;2024-01-10T11:42:10;100556.48;;;1.22;59.28
77235;BME280;66253;50.526;14.974;2024-01-10T11:44:49;100553.64;;;1.29;58.81
77235;BME280;66253;50.526;14.974;2024-01-10T11:47:18;100552.32;;;1.34;58.02
77235;BME280;66253;50.526;14.974;2024-01-10T11:49:57;100547.95;;;1.40;57.28
77235;BME280;66253;50.526;14.974;2024-01-10T11:52:33;100542.57;;;1.45;56.15
77235;BME280;66253;50.526;14.974;2024-01-10T11:55:02;100537.38;;;1.49;56.14
77235;BME280;66253;50.526;14.974;2024-01-10T11:57:31;100535.02;;;1.54;54.94
77235;BME280;66253;50.526;14.974;2024-01-10T11:59:59;100532.84;;;1.59;54.59
77235;BME280;66253;50.526;14.974;2024-01-10T12:02:28;100530.67;;;1.66;54.92
77235;BME280;66253;50.526;14.974;2024-01-10T12:05:00;100532.88;;;1.75;55.53
77235;BME280;66253;50.526;14.974;2024-01-10T12:07:28;100527.98;;;1.84;54.75
77235;BME280;66253;50.526;14.974;2024-01-10T12:09:57;100523.45;;;1.90;55.19
77235;BME280;66253;50.526;14.974;2024-01-10T12:12:25;100524.30;;;2.01;55.85
77235;BME280;66253;50.526;14.974;2024-01-10T12:14:55;100525.64;;;2.10;55.00
77235;BME280;66253;50.526;14.974;2024-01-10T12:17:28;100522.77;;;2.16;54.45
77235;BME280;66253;50.526;14.974;2024-01-10T12:19:59;100520.90;;;2.25;54.44
77235;BME280;66253;50.526;14.974;2024-01-10T12:22:27;100520.71;;;2.33;54.06
77235;BME280;66253;50.526;14.974;2024-01-10T12:24:56;100515.83;;;2.40;53.09
77235;BME280;66253;50.526;14.974;2024-01-10T12:27:24;100514.64;;;2.44;52.91
77235;BME280;66253;50.526;14.974;2024-01-10T12:29:53;100512.27;;;2.49;52.64
77235;BME280;66253;50.526;14.974;2024-01-10T12:32:21;100506.02;;;2.54;52.58
77235;BME280;66253;50.526;14.974;2024-01-10T12:34:50;100509.70;;;2.63;52.98
77235;BME280;66253;50.526;14.974;2024-01-10T12:37:22;100505.98;;;2.69;51.95
77235;BME280;66253;50.526;14.974;2024-01-10T12:39:50;100504.96;;;2.72;51.08
77235;BME280;66253;50.526;14.974;2024-01-10T12:42:18;100502.76;;;2.73;49.21
77235;BME280;66253;50.526;14.974;2024-01-10T12:44:47;100499.54;;;2.76;51.22
77235;BME280;66253;50.526;14.974;2024-01-10T12:47:20;100496.15;;;2.81;51.06
77235;BME280;66253;50.526;14.974;2024-01-10T12:49:49;100494.29;;;2.85;50.55
77235;BME280;66253;50.526;14.974;2024-01-10T12:52:17;100493.23;;;2.91;50.22